Terminal Aerodrome Forecast
Issued by NWS

Home | Current Version | Previous Version | Text Only | Print | Product List | Glossary On
Versions: 1 2 3 4 5 6 7 8 9 10 11 12 13 14
797
FTUS42 TJSJ 231739
TAFJBQ
TAF
TJBQ 231739Z 2318/2418 08015KT P6SM VCSH SCT030
     FM232300 10010KT P6SM FEW060
     FM241400 08015G25KT P6SM SCT025
      AMD NOT SKED 2402/2411=

USA.gov is the U.S. government's official web portal to all federal, state and local government web resources and services.